Time;durP1;ratioP1;P1;durP2;ratioP2;P2;SDS_P1;SDS_P2;PMS_P1;PMS_P2;Temp;Humidity;BMP_temperature;BMP_pressure;BME280_temperature;BME280_humidity;BME280_pressure;Samples;Min_cycle;Max_cycle;Signal;HPM_P1;HPM_P2
2022/03/25 00:00:00;;;;;;;109.22;69.15;;;28.40;99.90;;;;;;5148177;27;20031;-62
2022/03/25 00:02:27;;;;;;;55.05;37.72;;;28.50;99.90;;;;;;5152757;27;20467;-62
2022/03/25 00:04:53;;;;;;;65.85;39.58;;;28.50;99.90;;;;;;5138302;27;20034;-61
2022/03/25 00:07:20;;;;;;;56.03;33.63;;;28.50;99.90;;;;;;5137283;27;20041;-64
2022/03/25 00:09:47;;;;;;;43.83;28.13;;;28.50;99.90;;;;;;5131134;28;20031;-61
2022/03/25 00:12:14;;;;;;;55.63;33.25;;;28.60;99.90;;;;;;5141233;27;20031;-62
2022/03/25 00:14:41;;;;;;;63.75;39.15;;;28.70;99.90;;;;;;5151561;27;20105;-61
2022/03/25 00:17:08;;;;;;;43.13;26.33;;;28.80;99.90;;;;;;5151614;27;20031;-63
2022/03/25 00:19:34;;;;;;;40.90;22.95;;;28.80;99.90;;;;;;5140392;27;20031;-60
2022/03/25 00:22:01;;;;;;;39.35;23.48;;;28.80;99.90;;;;;;5137353;27;20102;-62
2022/03/25 00:24:28;;;;;;;37.65;21.30;;;28.80;99.90;;;;;;5137697;27;20023;-61
2022/03/25 00:26:54;;;;;;;42.75;25.25;;;28.80;99.90;;;;;;5137619;27;20058;-62
2022/03/25 00:29:21;;;;;;;49.85;28.38;;;28.90;99.90;;;;;;5137777;27;20015;-62
2022/03/25 00:31:48;;;;;;;38.40;21.48;;;28.90;99.90;;;;;;5137615;27;20110;-65
2022/03/25 00:34:14;;;;;;;41.60;24.88;;;28.90;99.90;;;;;;5136972;27;20412;-65
2022/03/25 00:36:41;;;;;;;46.70;26.70;;;29.00;99.90;;;;;;5137805;27;20027;-61
2022/03/25 00:39:08;;;;;;;49.95;29.27;;;29.10;99.90;;;;;;5137970;27;20467;-62
2022/03/25 00:41:36;;;;;;;202.00;117.95;;;29.20;99.90;;;;;;5137272;27;20064;-62
2022/03/25 00:44:05;;;;;;;46.67;28.35;;;29.20;99.90;;;;;;5137205;27;20370;-65
2022/03/25 00:46:32;;;;;;;41.10;26.38;;;29.20;99.90;;;;;;5137558;27;20030;-62
2022/03/25 00:48:59;;;;;;;35.40;22.80;;;29.20;99.90;;;;;;5137218;27;20015;-63
2022/03/25 00:51:26;;;;;;;175.63;122.75;;;29.30;99.90;;;;;;5137245;27;20019;-62
2022/03/25 00:53:53;;;;;;;36.83;21.00;;;29.40;99.90;;;;;;5137391;27;20091;-62
2022/03/25 00:56:20;;;;;;;55.90;35.08;;;29.40;99.90;;;;;;5136947;27;20024;-62
2022/03/25 00:58:47;;;;;;;46.47;30.40;;;29.50;99.90;;;;;;5137507;27;20067;-62
2022/03/25 01:01:15;;;;;;;29.50;17.50;;;29.60;99.90;;;;;;5137157;27;20031;-60
2022/03/25 01:03:42;;;;;;;28.73;15.82;;;29.70;99.90;;;;;;5137062;27;20128;-62
2022/03/25 01:06:09;;;;;;;29.77;17.95;;;29.80;99.90;;;;;;5116248;28;20058;-65
2022/03/25 01:08:35;;;;;;;36.90;20.25;;;29.70;99.90;;;;;;5129250;27;20031;-62
2022/03/25 01:11:06;;;;;;;24.10;15.32;;;29.80;99.90;;;;;;5136672;27;20098;-66
2022/03/25 01:13:33;;;;;;;23.10;13.35;;;29.80;99.90;;;;;;5135880;27;20019;-64
2022/03/25 01:16:04;;;;;;;19.40;13.82;;;29.80;99.90;;;;;;5136374;27;20027;-64
2022/03/25 01:18:32;;;;;;;60.38;41.83;;;29.90;99.90;;;;;;5136294;27;20039;-63
2022/03/25 01:20:59;;;;;;;28.63;20.75;;;29.90;99.90;;;;;;5136728;27;20027;-62
2022/03/25 01:23:27;;;;;;;51.33;36.50;;;30.00;99.90;;;;;;5136182;27;20047;-61
2022/03/25 01:25:54;;;;;;;33.25;24.30;;;30.10;99.90;;;;;;5134625;27;20382;-63
2022/03/25 01:28:21;;;;;;;29.23;17.27;;;30.20;99.90;;;;;;5133037;27;20079;-62
2022/03/25 01:30:49;;;;;;;25.10;17.20;;;30.30;99.90;;;;;;5134519;27;20027;-62
2022/03/25 01:33:16;;;;;;;34.75;17.50;;;30.40;99.90;;;;;;5135665;27;20038;-61
2022/03/25 01:35:42;;;;;;;26.10;15.18;;;30.50;99.90;;;;;;5136399;27;20428;-62
2022/03/25 01:38:09;;;;;;;27.05;16.92;;;30.60;99.90;;;;;;5136032;27;20023;-63
2022/03/25 01:40:36;;;;;;;22.58;13.32;;;30.60;99.90;;;;;;5135976;27;20072;-62
2022/03/25 01:43:05;;;;;;;23.65;14.30;;;30.70;99.90;;;;;;5135888;27;20023;-61
2022/03/25 01:45:34;;;;;;;22.88;12.73;;;30.70;99.90;;;;;;5135945;27;20423;-64
2022/03/25 01:48:03;;;;;;;19.98;12.90;;;30.70;99.90;;;;;;5135891;27;20022;-65
2022/03/25 01:50:29;;;;;;;22.38;12.43;;;30.70;99.90;;;;;;5151472;22;20082;-63
2022/03/25 01:52:56;;;;;;;17.58;13.65;;;30.70;99.90;;;;;;5115447;28;20023;-65
2022/03/25 01:55:26;;;;;;;22.85;11.80;;;30.80;99.90;;;;;;5113618;28;20027;-64
2022/03/25 01:57:57;;;;;;;32.53;21.13;;;31.00;99.90;;;;;;5113033;28;20102;-63
2022/03/25 02:00:28;;;;;;;26.35;16.88;;;30.90;99.90;;;;;;5115340;28;20016;-62
2022/03/25 02:02:54;;;;;;;39.17;25.58;;;30.80;99.90;;;;;;5106226;28;20031;-63
2022/03/25 02:05:21;;;;;;;82.22;46.53;;;30.80;99.90;;;;;;5108106;28;20024;-63
2022/03/25 02:07:48;;;;;;;149.05;69.80;;;31.00;99.90;;;;;;5114291;28;20383;-65
2022/03/25 02:10:16;;;;;;;41.15;21.67;;;31.10;99.90;;;;;;5111217;28;20583;-64
2022/03/25 02:12:43;;;;;;;22.15;12.88;;;31.10;99.90;;;;;;5095995;28;20088;-61
2022/03/25 02:15:10;;;;;;;49.33;23.80;;;31.10;99.90;;;;;;5087698;28;20024;-63
2022/03/25 02:17:37;;;;;;;66.28;27.15;;;31.20;99.90;;;;;;5086512;28;20064;-62
2022/03/25 02:20:08;;;;;;;61.42;30.20;;;31.10;99.90;;;;;;5091421;28;20431;-62
2022/03/25 02:22:38;;;;;;;116.47;61.63;;;31.00;99.90;;;;;;5093217;28;20099;-61
2022/03/25 02:25:11;;;;;;;109.90;64.07;;;31.10;99.90;;;;;;5100302;28;20454;-63
2022/03/25 02:27:38;;;;;;;74.95;48.00;;;31.10;99.90;;;;;;5100210;28;20032;-62
2022/03/25 02:30:07;;;;;;;75.47;31.98;;;31.20;99.90;;;;;;5107722;28;20062;-64
2022/03/25 02:32:35;;;;;;;96.80;60.83;;;31.20;99.90;;;;;;5090339;28;20452;-64
2022/03/25 02:35:02;;;;;;;105.13;70.57;;;31.10;99.90;;;;;;5108301;28;20020;-65
2022/03/25 02:37:29;;;;;;;84.10;49.78;;;31.00;99.90;;;;;;5112674;28;20028;-66
2022/03/25 02:39:56;;;;;;;29.48;18.65;;;31.00;99.90;;;;;;5105782;28;20482;-65
2022/03/25 02:42:22;;;;;;;30.08;18.92;;;30.90;99.90;;;;;;5106618;28;20031;-64
2022/03/25 02:44:50;;;;;;;24.65;17.10;;;30.80;99.90;;;;;;5099268;28;20024;-64
2022/03/25 02:47:17;;;;;;;24.40;15.45;;;30.80;99.90;;;;;;5091755;28;20024;-64
2022/03/25 02:49:44;;;;;;;30.95;16.45;;;30.90;99.90;;;;;;5088099;28;20040;-65
2022/03/25 02:52:11;;;;;;;21.08;13.15;;;30.90;99.90;;;;;;5092370;28;20500;-65
2022/03/25 02:54:38;;;;;;;17.83;13.07;;;30.90;99.90;;;;;;5093932;28;20043;-63
2022/03/25 02:57:05;;;;;;;22.63;13.65;;;30.80;99.90;;;;;;5096993;28;20403;-62
2022/03/25 02:59:32;;;;;;;20.75;14.05;;;30.80;99.90;;;;;;5092070;28;20377;-65
2022/03/25 03:04:20;;;;;;;17.13;12.77;;;30.90;99.90;;;;;;5090222;27;20404;-61
2022/03/25 03:06:47;;;;;;;21.52;12.45;;;31.00;99.90;;;;;;5076366;28;20435;-60
2022/03/25 03:09:14;;;;;;;33.90;23.15;;;31.30;99.90;;;;;;5076175;28;20392;-63
2022/03/25 03:11:40;;;;;;;41.42;27.63;;;31.50;99.90;;;;;;5075020;28;20025;-61
2022/03/25 03:14:08;;;;;;;18.55;12.45;;;31.50;99.90;;;;;;5069875;28;20025;-62
2022/03/25 03:16:35;;;;;;;24.58;11.68;;;31.90;99.90;;;;;;5070917;28;20033;-63
2022/03/25 03:19:01;;;;;;;16.13;10.35;;;32.00;99.90;;;;;;5065134;28;20103;-63
2022/03/25 03:21:29;;;;;;;17.38;11.95;;;32.20;99.90;;;;;;5068439;28;20077;-61
2022/03/25 03:23:56;;;;;;;18.42;13.90;;;32.20;99.90;;;;;;5068836;28;20016;-61
2022/03/25 03:26:23;;;;;;;22.80;13.10;;;32.10;99.90;;;;;;5071697;28;20037;-62
2022/03/25 03:28:50;;;;;;;21.85;13.50;;;32.00;99.90;;;;;;5070300;28;20477;-63
2022/03/25 03:31:16;;;;;;;44.40;29.77;;;32.00;99.90;;;;;;5064556;28;20028;-60
2022/03/25 03:33:43;;;;;;;33.75;22.25;;;32.00;99.90;;;;;;5072129;28;20085;-62
2022/03/25 03:36:10;;;;;;;27.13;15.13;;;32.10;99.90;;;;;;5069482;28;20056;-59
2022/03/25 03:38:36;;;;;;;28.30;19.70;;;32.30;99.90;;;;;;5066795;28;20020;-58
2022/03/25 03:41:03;;;;;;;25.52;12.10;;;32.50;99.90;;;;;;5069877;28;20084;-58
2022/03/25 03:43:30;;;;;;;38.35;29.75;;;32.40;99.90;;;;;;5068762;28;20028;-59
2022/03/25 03:45:56;;;;;;;65.25;54.25;;;32.40;99.90;;;;;;5064376;28;20020;-59
2022/03/25 03:48:23;;;;;;;90.28;69.90;;;32.60;99.90;;;;;;5072633;28;20068;-60
2022/03/25 03:50:50;;;;;;;24.88;15.63;;;32.60;99.90;;;;;;5071003;28;20484;-60
2022/03/25 03:53:16;;;;;;;19.15;12.00;;;32.80;99.90;;;;;;5065209;28;20033;-60
2022/03/25 03:55:43;;;;;;;16.38;11.23;;;32.90;99.40;;;;;;5069286;28;20031;-60
2022/03/25 03:58:10;;;;;;;19.92;12.43;;;33.00;99.10;;;;;;5067682;28;20021;-59
2022/03/25 04:00:37;;;;;;;19.45;12.02;;;32.80;99.10;;;;;;5068473;28;20409;-60
2022/03/25 04:03:04;;;;;;;23.42;11.45;;;32.80;98.90;;;;;;5067472;28;20558;-61
2022/03/25 04:05:31;;;;;;;21.05;10.80;;;32.80;99.00;;;;;;5067267;28;20079;-59
2022/03/25 04:07:58;;;;;;;18.65;11.93;;;32.80;99.30;;;;;;5070053;28;20009;-60
2022/03/25 04:10:25;;;;;;;16.42;12.23;;;32.60;98.60;;;;;;5071271;28;20059;-60
2022/03/25 04:12:51;;;;;;;15.57;11.70;;;32.50;99.50;;;;;;5065083;28;20044;-61
2022/03/25 04:15:19;;;;;;;20.40;11.93;;;32.50;99.40;;;;;;5054237;28;20029;-62
2022/03/25 04:17:46;;;;;;;19.10;11.50;;;32.80;97.70;;;;;;5055271;28;20107;-61
2022/03/25 04:20:14;;;;;;;14.43;11.38;;;32.80;97.60;;;;;;5056745;28;20480;-62
2022/03/25 04:22:44;;;;;;;20.15;11.30;;;32.70;98.30;;;;;;5053811;28;20028;-62
2022/03/25 04:25:11;;;;;;;17.63;10.65;;;32.80;98.00;;;;;;5053852;28;20033;-61
2022/03/25 04:27:51;;;;;;;13.90;11.15;;;32.80;97.80;;;;;;5056489;28;20024;-61
2022/03/25 04:30:24;;;;;;;18.38;11.52;;;32.80;97.60;;;;;;5054793;28;20029;-63
2022/03/25 04:32:51;;;;;;;21.88;11.93;;;32.80;97.20;;;;;;5055390;28;20028;-61
2022/03/25 04:35:19;;;;;;;15.65;11.32;;;32.80;96.60;;;;;;5054359;28;20028;-61
2022/03/25 04:37:46;;;;;;;20.40;11.90;;;32.80;96.10;;;;;;5058641;28;20043;-61
2022/03/25 04:40:17;;;;;;;22.73;12.98;;;32.80;96.80;;;;;;5051547;28;20072;-61
2022/03/25 04:42:47;;;;;;;24.45;11.77;;;32.90;97.10;;;;;;5051646;28;20124;-61
2022/03/25 04:45:15;;;;;;;16.83;11.82;;;33.00;96.20;;;;;;5056265;28;20028;-61
2022/03/25 04:47:42;;;;;;;18.10;11.43;;;33.10;96.50;;;;;;5051556;28;20017;-62
2022/03/25 04:50:09;;;;;;;19.92;10.80;;;33.20;96.60;;;;;;5056193;28;20071;-62
2022/03/25 04:52:36;;;;;;;20.33;11.25;;;33.20;96.40;;;;;;5055693;28;20546;-61
2022/03/25 04:55:03;;;;;;;18.25;12.18;;;33.30;94.50;;;;;;5054576;28;20036;-61
2022/03/25 04:57:30;;;;;;;14.70;10.73;;;33.50;94.60;;;;;;5054429;28;20622;-62
2022/03/25 04:59:57;;;;;;;18.38;11.00;;;33.60;94.30;;;;;;5059881;28;20024;-62
2022/03/25 05:02:24;;;;;;;17.17;10.50;;;33.80;93.70;;;;;;5052732;28;20029;-63
2022/03/25 05:04:55;;;;;;;16.48;11.25;;;33.80;92.80;;;;;;5054464;28;20025;-60
2022/03/25 05:07:22;;;;;;;14.90;9.80;;;33.80;93.30;;;;;;5058212;28;20079;-61
2022/03/25 05:09:49;;;;;;;19.80;11.18;;;33.70;93.10;;;;;;5051334;28;20025;-62
2022/03/25 05:12:16;;;;;;;19.05;11.40;;;33.60;92.50;;;;;;5053827;28;20385;-62
2022/03/25 05:14:43;;;;;;;15.98;10.88;;;33.60;93.20;;;;;;5053946;28;20104;-61
2022/03/25 05:17:10;;;;;;;14.30;10.45;;;33.60;92.30;;;;;;5054775;28;20155;-63
2022/03/25 05:19:36;;;;;;;16.77;10.40;;;33.60;92.50;;;;;;5056571;28;20033;-61
2022/03/25 05:22:03;;;;;;;14.50;11.25;;;33.60;92.30;;;;;;5049392;28;20041;-61
2022/03/25 05:24:30;;;;;;;14.93;10.73;;;33.70;91.70;;;;;;5049803;28;20021;-62
2022/03/25 05:26:59;;;;;;;17.00;11.65;;;33.60;91.70;;;;;;5053332;28;20025;-62
2022/03/25 05:29:27;;;;;;;13.45;10.73;;;33.60;92.40;;;;;;5044930;28;20025;-62
2022/03/25 05:31:53;;;;;;;16.27;10.73;;;33.90;92.20;;;;;;5053207;28;20017;-61
2022/03/25 05:34:20;;;;;;;17.48;11.05;;;34.10;91.70;;;;;;5054230;28;20366;-62
2022/03/25 05:36:47;;;;;;;23.52;10.85;;;34.30;90.30;;;;;;5053618;28;20021;-62
2022/03/25 05:39:15;;;;;;;15.52;10.27;;;34.40;91.00;;;;;;5053119;28;20059;-61
2022/03/25 05:41:42;;;;;;;14.43;10.70;;;34.50;90.50;;;;;;5053544;28;20488;-62
2022/03/25 05:44:09;;;;;;;19.15;11.95;;;34.40;90.70;;;;;;5053098;28;20067;-61
2022/03/25 05:46:36;;;;;;;16.25;10.30;;;34.20;90.90;;;;;;5054001;28;20024;-62
2022/03/25 05:49:03;;;;;;;15.20;10.65;;;34.00;90.60;;;;;;5052572;28;20123;-61
2022/03/25 05:51:30;;;;;;;25.40;10.40;;;33.90;90.90;;;;;;5054103;28;20043;-61
2022/03/25 05:53:56;;;;;;;15.68;9.90;;;33.80;90.80;;;;;;5052116;28;20025;-61
2022/03/25 05:56:23;;;;;;;15.65;9.52;;;33.80;90.60;;;;;;5046487;28;20021;-61
2022/03/25 05:58:50;;;;;;;19.20;10.98;;;33.80;91.20;;;;;;5049868;28;20025;-62
2022/03/25 06:01:16;;;;;;;28.00;22.20;;;33.70;90.50;;;;;;5049267;28;20057;-61
2022/03/25 06:03:44;;;;;;;20.42;16.10;;;33.70;91.00;;;;;;5051605;28;20029;-64
2022/03/25 06:06:10;;;;;;;19.45;16.55;;;33.80;91.40;;;;;;5044520;28;20023;-62
2022/03/25 06:08:37;;;;;;;21.67;14.38;;;33.80;91.60;;;;;;5051801;28;20581;-65
2022/03/25 06:11:04;;;;;;;273.25;189.23;;;33.80;91.10;;;;;;5048938;28;20047;-62
2022/03/25 06:13:31;;;;;;;64.40;40.33;;;33.90;91.00;;;;;;5047932;28;20029;-62
2022/03/25 06:15:57;;;;;;;40.38;28.13;;;33.80;90.90;;;;;;5051741;28;20201;-61
2022/03/25 06:18:24;;;;;;;25.02;14.82;;;33.80;90.70;;;;;;5050792;28;20032;-61
2022/03/25 06:20:50;;;;;;;23.85;13.32;;;33.80;90.40;;;;;;5052207;28;20033;-62
2022/03/25 06:23:17;;;;;;;47.50;38.58;;;33.80;89.30;;;;;;5052497;28;20041;-62
2022/03/25 06:25:44;;;;;;;22.63;12.27;;;33.70;90.80;;;;;;5051835;28;20027;-62
2022/03/25 06:28:10;;;;;;;16.48;11.48;;;33.70;90.70;;;;;;5052357;28;20033;-61
2022/03/25 06:30:39;;;;;;;21.98;11.73;;;33.70;90.80;;;;;;5052449;28;20029;-62
2022/03/25 06:33:09;;;;;;;22.55;11.35;;;33.70;91.30;;;;;;5051028;28;20485;-59
2022/03/25 06:35:38;;;;;;;17.45;10.75;;;33.90;90.00;;;;;;5050535;28;20294;-55
2022/03/25 06:38:06;;;;;;;20.45;11.15;;;34.00;90.40;;;;;;5051034;28;20025;-59
2022/03/25 06:40:33;;;;;;;741.90;670.22;;;34.20;90.10;;;;;;5050641;28;20029;-59
2022/03/25 06:43:00;;;;;;;166.82;148.95;;;34.20;89.30;;;;;;5051760;28;20102;-58
2022/03/25 06:45:27;;;;;;;37.35;30.05;;;34.30;88.90;;;;;;5053564;28;20571;-59
2022/03/25 06:47:55;;;;;;;16.95;12.10;;;34.40;89.40;;;;;;5052530;28;20039;-60
2022/03/25 06:50:24;;;;;;;14.57;11.10;;;34.40;87.80;;;;;;5049622;28;20025;-57
2022/03/25 06:52:52;;;;;;;19.33;11.85;;;34.30;87.40;;;;;;5050997;28;20033;-58
2022/03/25 06:55:19;;;;;;;22.58;13.30;;;34.20;85.70;;;;;;5051120;28;20062;-59
2022/03/25 06:57:48;;;;;;;20.70;12.18;;;34.10;85.80;;;;;;5051046;28;20017;-59
2022/03/25 07:00:15;;;;;;;90.55;51.72;;;34.10;88.00;;;;;;5051690;28;20029;-57
2022/03/25 07:04:58;;;;;;;31.48;20.85;;;34.20;86.30;;;;;;5111475;27;20422;-61
2022/03/25 07:07:26;;;;;;;73.53;43.28;;;34.10;87.80;;;;;;5110100;28;20048;-55
2022/03/25 07:09:55;;;;;;;29.73;17.55;;;34.10;88.00;;;;;;5106334;28;20031;-57
2022/03/25 07:12:22;;;;;;;18.83;11.93;;;34.10;87.20;;;;;;5107846;28;20024;-60
2022/03/25 07:14:48;;;;;;;31.90;19.35;;;34.20;85.40;;;;;;5110076;28;20067;-58
2022/03/25 07:17:15;;;;;;;35.47;21.55;;;34.20;85.90;;;;;;5110869;28;20089;-58
2022/03/25 07:19:42;;;;;;;39.90;24.20;;;34.40;84.10;;;;;;5111044;28;20034;-58
2022/03/25 07:22:09;;;;;;;31.52;20.75;;;34.40;81.20;;;;;;5111312;28;20022;-59
2022/03/25 07:24:35;;;;;;;24.00;13.70;;;34.40;83.00;;;;;;5110772;28;20023;-58
2022/03/25 07:27:02;;;;;;;27.80;15.40;;;34.40;83.30;;;;;;5111028;28;20050;-58
2022/03/25 07:29:29;;;;;;;17.83;11.50;;;34.40;83.70;;;;;;5110550;28;20426;-59
2022/03/25 07:31:56;;;;;;;28.42;11.48;;;34.30;85.10;;;;;;5110702;28;20447;-58
2022/03/25 07:34:22;;;;;;;15.82;10.77;;;34.20;86.70;;;;;;5110914;28;20020;-59
2022/03/25 07:36:49;;;;;;;18.42;10.52;;;34.10;86.60;;;;;;5110892;28;20020;-58
2022/03/25 07:39:16;;;;;;;18.92;13.18;;;34.10;86.90;;;;;;5110550;28;20019;-57
2022/03/25 07:41:42;;;;;;;17.67;11.30;;;34.00;87.00;;;;;;5109671;28;20028;-59
2022/03/25 07:44:09;;;;;;;22.25;10.98;;;34.00;87.00;;;;;;5098998;28;20028;-59
2022/03/25 07:46:35;;;;;;;16.85;12.15;;;34.10;87.60;;;;;;5090135;28;20016;-60
2022/03/25 07:49:03;;;;;;;24.10;15.30;;;34.10;86.70;;;;;;5090543;28;20024;-60
2022/03/25 07:51:30;;;;;;;21.55;13.80;;;34.00;85.30;;;;;;5093383;28;20231;-58
2022/03/25 07:53:57;;;;;;;20.42;12.23;;;33.90;87.80;;;;;;5109449;28;20059;-56
2022/03/25 07:56:23;;;;;;;19.02;14.60;;;33.90;87.10;;;;;;5109363;28;20080;-60
2022/03/25 07:58:50;;;;;;;106.15;83.07;;;33.80;88.30;;;;;;5110297;28;20032;-55
2022/03/25 08:01:17;;;;;;;191.55;144.70;;;33.80;87.60;;;;;;5109944;28;20024;-60
2022/03/25 08:03:44;;;;;;;118.10;91.28;;;33.80;87.10;;;;;;5090154;28;20492;-62
2022/03/25 08:06:13;;;;;;;128.55;102.75;;;33.90;87.70;;;;;;5097278;28;20047;-62
2022/03/25 08:08:39;;;;;;;80.00;58.75;;;33.80;87.40;;;;;;5110443;28;20024;-61
2022/03/25 08:11:06;;;;;;;45.17;33.08;;;33.80;89.20;;;;;;5110668;28;20031;-58
2022/03/25 08:13:34;;;;;;;76.97;54.20;;;33.80;89.40;;;;;;5108994;28;20248;-61
2022/03/25 08:16:01;;;;;;;48.42;33.20;;;33.80;89.60;;;;;;5096401;28;20388;-60
2022/03/25 08:18:27;;;;;;;141.55;103.72;;;33.80;88.00;;;;;;5095814;28;20423;-60
2022/03/25 08:20:56;;;;;;;69.80;47.85;;;33.80;89.40;;;;;;5096091;28;20036;-60
2022/03/25 08:29:00;;;;;;;801.45;606.72;;;33.60;88.70;;;;;;5093262;28;20484;-61
2022/03/25 08:31:28;;;;;;;1265.25;842.05;;;33.50;90.40;;;;;;5096776;28;20039;-61
2022/03/25 08:33:55;;;;;;;1180.05;760.08;;;33.30;90.90;;;;;;5096751;28;20451;-59
2022/03/25 08:36:22;;;;;;;793.67;582.95;;;33.00;92.10;;;;;;5096346;28;20058;-61
2022/03/25 08:38:49;;;;;;;1474.90;825.13;;;32.80;92.40;;;;;;5096604;28;20043;-56
2022/03/25 08:41:15;;;;;;;1290.97;752.90;;;32.60;93.10;;;;;;5095968;28;20024;-57
2022/03/25 08:43:42;;;;;;;1999.90;999.90;;;32.50;93.10;;;;;;5095654;28;20059;-60
2022/03/25 08:46:09;;;;;;;1999.90;969.08;;;32.40;92.90;;;;;;5095476;28;20024;-58
2022/03/25 08:48:36;;;;;;;1411.22;790.35;;;32.30;92.40;;;;;;5092750;28;20035;-57
2022/03/25 08:51:02;;;;;;;448.88;289.58;;;32.10;91.90;;;;;;5085978;28;20016;-59
2022/03/25 08:53:29;;;;;;;408.55;234.43;;;31.80;93.30;;;;;;5094914;28;20107;-60
2022/03/25 08:55:56;;;;;;;275.65;150.65;;;31.10;94.80;;;;;;5094433;28;20028;-62
2022/03/25 08:58:22;;;;;;;276.60;149.15;;;30.80;97.80;;;;;;5092821;28;20081;-61
2022/03/25 09:00:49;;;;;;;222.80;129.30;;;30.80;98.60;;;;;;5094622;28;20024;-61
2022/03/25 09:03:16;;;;;;;667.58;478.45;;;30.70;98.80;;;;;;5093366;28;20115;-60
2022/03/25 09:05:42;;;;;;;175.10;105.85;;;30.60;99.90;;;;;;5091533;28;20514;-62
2022/03/25 09:08:09;;;;;;;200.32;122.38;;;30.40;99.90;;;;;;5087819;28;20679;-61
2022/03/25 09:10:36;;;;;;;197.27;112.15;;;30.10;99.90;;;;;;5094026;28;20031;-59
2022/03/25 09:13:03;;;;;;;245.40;151.02;;;29.70;99.90;;;;;;5094821;28;20099;-60
2022/03/25 09:15:30;;;;;;;274.58;170.57;;;29.60;99.90;;;;;;5092603;28;20044;-59
2022/03/25 09:17:57;;;;;;;203.30;117.93;;;29.70;99.90;;;;;;5094233;28;20024;-59
2022/03/25 09:20:24;;;;;;;151.82;107.82;;;29.30;99.90;;;;;;5094373;28;20036;-61
2022/03/25 09:22:53;;;;;;;51.25;33.42;;;29.10;99.90;;;;;;5092761;28;20478;-61
2022/03/25 09:25:23;;;;;;;42.00;27.38;;;29.00;99.90;;;;;;5092573;28;20024;-58
2022/03/25 09:27:49;;;;;;;35.45;22.73;;;28.90;99.90;;;;;;5092415;28;20028;-59
2022/03/25 09:30:16;;;;;;;33.15;25.10;;;28.80;99.90;;;;;;5094792;28;20043;-59
2022/03/25 09:32:43;;;;;;;30.92;20.80;;;28.80;99.90;;;;;;5094497;28;20026;-57
2022/03/25 09:35:10;;;;;;;42.13;29.75;;;28.90;99.90;;;;;;5094425;28;20036;-61
2022/03/25 09:37:40;;;;;;;30.40;19.95;;;29.10;99.90;;;;;;5091224;28;20056;-61
2022/03/25 09:40:12;;;;;;;28.20;19.52;;;29.10;99.90;;;;;;5094079;28;20027;-62
2022/03/25 09:42:40;;;;;;;29.75;19.63;;;29.20;99.90;;;;;;5093366;28;20381;-63
2022/03/25 09:45:09;;;;;;;27.80;17.52;;;29.20;99.90;;;;;;5091946;28;20020;-61
2022/03/25 09:47:36;;;;;;;26.10;16.33;;;29.20;99.90;;;;;;5091683;28;20028;-62
2022/03/25 09:50:05;;;;;;;27.17;15.02;;;29.20;99.90;;;;;;5091597;28;20024;-60
2022/03/25 09:52:34;;;;;;;24.63;13.15;;;29.50;99.90;;;;;;5092170;28;20012;-62
2022/03/25 09:55:01;;;;;;;25.02;12.30;;;29.50;99.90;;;;;;5092197;28;20166;-61
2022/03/25 09:57:29;;;;;;;16.83;11.57;;;29.40;99.90;;;;;;5093992;28;20546;-61
2022/03/25 09:59:57;;;;;;;19.90;14.95;;;29.30;99.90;;;;;;5093919;28;20043;-56
2022/03/25 10:02:25;;;;;;;26.83;14.30;;;29.10;99.90;;;;;;5093551;28;20020;-59
2022/03/25 10:04:53;;;;;;;73.13;54.45;;;29.10;99.90;;;;;;5094768;28;20488;-59
2022/03/25 10:07:21;;;;;;;28.02;19.67;;;29.10;99.90;;;;;;5093914;28;20024;-59
2022/03/25 10:10:09;;;;;;;51.00;35.70;;;29.10;99.90;;;;;;5093816;28;20099;-60
2022/03/25 10:12:39;;;;;;;20.80;14.85;;;29.10;99.90;;;;;;5093946;28;20372;-57
2022/03/25 10:15:22;;;;;;;98.40;73.70;;;29.10;99.90;;;;;;5092690;28;20024;-60
2022/03/25 10:17:59;;;;;;;37.53;24.33;;;29.20;99.90;;;;;;5091101;28;20032;-62
2022/03/25 10:20:38;;;;;;;122.45;97.25;;;29.20;99.90;;;;;;5092021;28;20020;-59
2022/03/25 10:23:17;;;;;;;83.57;62.28;;;29.20;99.90;;;;;;5090737;28;20024;-57
2022/03/25 10:25:46;;;;;;;39.50;26.92;;;29.50;99.90;;;;;;5092441;28;20063;-61
2022/03/25 10:28:29;;;;;;;40.33;24.58;;;29.50;99.90;;;;;;5091694;28;20056;-59
2022/03/25 10:31:01;;;;;;;33.92;22.05;;;29.60;99.90;;;;;;5092168;28;20024;-63
2022/03/25 10:33:29;;;;;;;31.33;21.33;;;29.60;99.90;;;;;;5092934;28;20037;-62
2022/03/25 10:36:04;;;;;;;34.25;20.77;;;29.60;99.90;;;;;;5092914;28;20485;-62
2022/03/25 10:38:43;;;;;;;35.70;24.65;;;29.50;99.90;;;;;;5091840;28;20031;-60
2022/03/25 10:41:11;;;;;;;38.83;24.05;;;29.50;99.90;;;;;;5091946;28;20099;-57
2022/03/25 10:44:08;;;;;;;43.00;26.15;;;29.50;99.90;;;;;;5088148;28;20025;-60
2022/03/25 10:46:39;;;;;;;36.85;23.13;;;29.60;99.90;;;;;;5092955;28;20452;-62
2022/03/25 10:49:08;;;;;;;45.42;21.83;;;29.60;99.90;;;;;;5091492;28;20016;-60
2022/03/25 10:51:36;;;;;;;49.55;29.02;;;29.60;99.90;;;;;;5093698;28;20020;-61
2022/03/25 10:54:07;;;;;;;51.78;30.05;;;29.60;99.90;;;;;;5091488;28;20413;-59
2022/03/25 10:56:48;;;;;;;49.67;29.08;;;29.70;99.90;;;;;;5092187;28;20445;-60
2022/03/25 10:59:34;;;;;;;47.30;30.75;;;29.80;99.90;;;;;;5092807;28;20107;-62
2022/03/25 11:02:04;;;;;;;79.97;48.70;;;29.90;99.90;;;;;;5093715;28;20476;-58
2022/03/25 11:04:32;;;;;;;70.90;48.03;;;29.80;99.90;;;;;;5093245;28;20072;-59
2022/03/25 11:07:01;;;;;;;83.72;54.20;;;29.80;99.90;;;;;;5093999;28;20021;-62
2022/03/25 11:09:28;;;;;;;89.57;57.22;;;29.90;99.90;;;;;;5094006;28;20040;-58
2022/03/25 11:11:56;;;;;;;83.18;59.03;;;29.90;99.90;;;;;;5091202;28;20392;-64
2022/03/25 11:14:24;;;;;;;96.97;64.95;;;30.00;99.90;;;;;;5092592;28;20495;-61
2022/03/25 11:17:02;;;;;;;110.10;73.70;;;30.10;99.90;;;;;;5090036;28;20062;-61
2022/03/25 11:19:29;;;;;;;129.18;84.65;;;30.10;99.90;;;;;;5091985;28;20031;-58
2022/03/25 11:21:58;;;;;;;122.50;83.15;;;30.10;99.90;;;;;;5093037;28;20058;-61
2022/03/25 11:24:31;;;;;;;139.18;93.28;;;30.00;99.90;;;;;;5093476;28;20063;-55
2022/03/25 11:27:02;;;;;;;135.88;88.97;;;30.00;99.90;;;;;;5093544;28;20031;-60
2022/03/25 11:29:32;;;;;;;147.75;103.53;;;29.90;99.90;;;;;;5092990;28;20495;-61
2022/03/25 11:32:11;;;;;;;99.10;63.58;;;29.90;99.90;;;;;;5091904;28;20036;-56
2022/03/25 11:34:44;;;;;;;148.88;105.38;;;29.90;99.90;;;;;;5093612;28;20058;-60
2022/03/25 11:37:21;;;;;;;95.88;55.22;;;29.90;99.90;;;;;;5090550;28;20032;-62
2022/03/25 11:40:08;;;;;;;127.55;92.90;;;29.90;99.90;;;;;;5093367;28;20428;-57
2022/03/25 11:42:38;;;;;;;74.63;51.67;;;29.90;99.90;;;;;;5090355;28;20040;-61
2022/03/25 11:45:31;;;;;;;73.22;46.42;;;29.70;99.90;;;;;;5092339;28;20103;-60
2022/03/25 11:47:59;;;;;;;70.50;47.00;;;29.80;99.90;;;;;;5088952;28;20024;-59
2022/03/25 11:50:28;;;;;;;79.50;47.40;;;29.80;99.90;;;;;;5094354;28;20396;-61
2022/03/25 11:52:56;;;;;;;77.38;47.90;;;29.80;99.90;;;;;;5087162;28;20032;-60
2022/03/25 11:55:23;;;;;;;74.18;49.88;;;29.80;99.90;;;;;;5092560;28;20292;-59
2022/03/25 11:57:50;;;;;;;75.85;45.63;;;29.70;99.90;;;;;;5096883;28;20028;-60
2022/03/25 12:00:28;;;;;;;56.80;40.45;;;29.80;99.90;;;;;;5096084;28;20473;-55
2022/03/25 12:03:05;;;;;;;69.35;40.47;;;29.80;99.90;;;;;;5093866;28;20553;-61
2022/03/25 12:05:33;;;;;;;65.25;40.10;;;29.80;99.90;;;;;;5095090;28;20039;-58
2022/03/25 12:08:21;;;;;;;56.40;38.00;;;29.80;99.90;;;;;;5094915;28;20099;-57
2022/03/25 12:10:49;;;;;;;57.42;37.35;;;29.80;99.90;;;;;;5094615;28;20020;-58
2022/03/25 12:13:17;;;;;;;46.17;33.33;;;29.80;99.90;;;;;;5090460;28;20169;-60
2022/03/25 12:15:45;;;;;;;53.60;33.67;;;29.80;99.90;;;;;;5090618;28;20024;-61
2022/03/25 12:18:46;;;;;;;46.75;32.10;;;29.70;99.90;;;;;;5094539;28;20081;-58
2022/03/25 12:21:14;;;;;;;105.15;79.15;;;29.70;99.90;;;;;;5095823;28;20028;-59
2022/03/25 12:23:40;;;;;;;67.63;50.35;;;29.70;99.90;;;;;;5095435;28;20052;-59
2022/03/25 12:26:07;;;;;;;52.95;33.72;;;29.70;99.90;;;;;;5095577;28;20040;-60
2022/03/25 12:28:34;;;;;;;47.50;31.52;;;29.70;99.90;;;;;;5095620;28;20034;-59
2022/03/25 12:31:04;;;;;;;46.15;30.58;;;29.70;99.90;;;;;;5092607;28;20373;-60
2022/03/25 12:33:31;;;;;;;49.90;33.38;;;29.70;99.90;;;;;;5095552;28;20028;-60
2022/03/25 12:36:03;;;;;;;51.10;32.20;;;29.70;99.90;;;;;;5096038;28;20024;-60
2022/03/25 12:38:30;;;;;;;56.15;35.75;;;29.70;99.90;;;;;;5091288;28;20496;-61